createdAt,value
2022-08-29T00:03:08.503Z,4.05
2022-08-29T00:08:11.709Z,4.28
2022-08-29T00:13:14.870Z,4.45
2022-08-29T00:18:20.269Z,4.60
2022-08-29T00:23:21.785Z,4.00
2022-08-29T00:28:24.306Z,4.32
2022-08-29T00:33:25.945Z,4.63
2022-08-29T00:38:28.412Z,4.65
2022-08-29T00:43:32.950Z,4.70
2022-08-29T00:48:38.230Z,4.30
2022-08-29T00:53:43.299Z,4.28
2022-08-29T00:59:13.449Z,4.47
2022-08-29T01:04:22.612Z,4.10
2022-08-29T01:09:29.541Z,4.40
2022-08-29T01:14:31.817Z,4.05
2022-08-29T01:19:46.642Z,4.53
2022-08-29T01:24:53.127Z,4.35
2022-08-29T01:29:58.049Z,4.18
2022-08-29T01:34:59.645Z,4.70
2022-08-29T01:40:01.257Z,4.40
2022-08-29T01:45:05.353Z,4.60
2022-08-29T01:50:15.077Z,4.82
2022-08-29T01:55:16.607Z,4.05
2022-08-29T02:00:18.233Z,4.90
2022-08-29T02:05:22.957Z,4.53
2022-08-29T02:10:25.464Z,4.72
2022-08-29T02:15:26.984Z,4.63
2022-08-29T02:20:29.646Z,4.13
2022-08-29T02:25:43.592Z,4.88
2022-08-29T02:30:54.055Z,4.60
2022-08-29T02:35:59.337Z,4.90
2022-08-29T02:41:01.613Z,4.65
2022-08-29T02:46:04.677Z,5.30
2022-08-29T02:51:06.611Z,4.80
2022-08-29T02:56:08.329Z,5.28
2022-08-29T03:01:17.967Z,5.30
2022-08-29T03:06:20.526Z,4.55
2022-08-29T03:11:24.893Z,5.80
2022-08-29T03:16:26.861Z,5.50
2022-08-29T03:21:28.392Z,5.45
2022-08-29T03:26:30.700Z,5.10
2022-08-29T03:31:32.509Z,5.90
2022-08-29T03:36:34.473Z,5.03
2022-08-29T03:41:35.987Z,5.35
2022-08-29T03:46:39.734Z,5.05
2022-08-29T03:51:42.085Z,4.85
2022-08-29T03:56:43.659Z,5.28
2022-08-29T04:01:48.144Z,5.20
2022-08-29T04:06:51.110Z,5.05
2022-08-29T04:11:52.636Z,4.88
2022-08-29T04:16:54.131Z,5.30
2022-08-29T04:21:57.165Z,5.05
2022-08-29T04:26:58.694Z,5.38
2022-08-29T04:32:00.211Z,4.72
2022-08-29T04:37:01.763Z,5.25
2022-08-29T04:42:06.698Z,5.88
2022-08-29T04:47:08.195Z,5.60
2022-08-29T04:52:12.905Z,5.80
2022-08-29T04:57:14.989Z,5.30
2022-08-29T05:02:17.844Z,5.32
2022-08-29T05:07:21.611Z,5.43
2022-08-29T05:12:28.880Z,5.60
2022-08-29T05:17:30.392Z,5.88
2022-08-29T05:22:34.999Z,5.30
2022-08-29T05:27:40.261Z,5.70
2022-08-29T05:32:42.251Z,6.05
2022-08-29T05:37:46.172Z,5.72
2022-08-29T05:42:47.749Z,5.30
2022-08-29T05:47:51.051Z,5.47
2022-08-29T05:52:54.449Z,5.72
2022-08-29T05:57:55.968Z,6.20
2022-08-29T06:02:57.614Z,5.63
2022-08-29T06:07:59.474Z,5.85
2022-08-29T06:13:00.977Z,5.65
2022-08-29T06:18:03.981Z,5.90
2022-08-29T06:23:05.486Z,5.75
2022-08-29T06:28:07.642Z,5.97
2022-08-29T06:33:10.053Z,6.32
2022-08-29T06:38:13.997Z,7.03
2022-08-29T06:43:18.818Z,7.30
2022-08-29T06:48:20.322Z,6.65
2022-08-29T06:53:29.827Z,6.80
2022-08-29T06:58:35.405Z,6.88
2022-08-29T07:03:39.232Z,6.72
2022-08-29T07:08:55.321Z,6.63
2022-08-29T07:13:59.989Z,6.57
2022-08-29T07:19:03.199Z,6.57
2022-08-29T07:24:05.725Z,7.03
2022-08-29T07:29:11.757Z,6.80
2022-08-29T07:34:13.918Z,6.53
2022-08-29T07:39:19.691Z,7.78
2022-08-29T07:44:21.291Z,6.22
2022-08-29T07:49:27.091Z,6.75
2022-08-29T07:54:37.838Z,6.22
2022-08-29T07:59:39.365Z,6.10
2022-08-29T08:04:40.950Z,5.70
2022-08-29T08:09:44.073Z,5.82
2022-08-29T08:14:45.639Z,6.18
2022-08-29T08:19:47.141Z,5.40
2022-08-29T08:24:48.642Z,5.85
2022-08-29T08:29:52.741Z,5.30
2022-08-29T08:34:57.063Z,5.35
2022-08-29T08:39:59.342Z,4.72
2022-08-29T08:45:13.255Z,5.00
2022-08-29T08:50:28.254Z,5.10
2022-08-29T08:55:50.754Z,4.82
2022-08-29T09:01:14.298Z,5.30
2022-08-29T09:06:31.583Z,5.25
2022-08-29T09:12:02.958Z,5.87
2022-08-29T09:17:07.518Z,4.88
2022-08-29T09:22:16.351Z,5.15
2022-08-29T09:27:23.207Z,5.50
2022-08-29T09:32:24.852Z,5.03
2022-08-29T09:37:36.224Z,5.75
2022-08-29T09:42:41.811Z,4.80
2022-08-29T09:47:43.934Z,4.70
2022-08-29T09:53:00.645Z,4.40
2022-08-29T09:58:10.256Z,4.20
2022-08-29T10:03:36.194Z,5.10
2022-08-29T10:08:41.062Z,5.25
2022-08-29T10:13:56.691Z,4.40
2022-08-29T10:24:36.638Z,4.68
2022-08-29T10:30:05.999Z,4.82
2022-08-29T10:35:33.876Z,4.30
2022-08-29T10:46:14.396Z,4.65
2022-08-29T10:51:24.909Z,4.25
2022-08-29T11:01:57.298Z,4.60
2022-08-29T11:07:13.585Z,4.38
2022-08-29T11:12:18.814Z,4.63
2022-08-29T11:17:24.690Z,4.15
2022-08-29T11:22:33.929Z,3.80
2022-08-29T11:28:04.302Z,3.22
2022-08-29T11:33:28.618Z,4.13
2022-08-29T11:39:15.347Z,4.05
2022-08-29T11:44:46.260Z,3.60
2022-08-29T11:49:51.547Z,4.25
2022-08-29T11:55:22.643Z,3.95
2022-08-29T12:00:31.566Z,4.00
2022-08-29T12:05:54.530Z,3.60
2022-08-29T12:10:56.883Z,3.90
2022-08-29T12:16:09.293Z,4.10
2022-08-29T12:21:48.773Z,3.08
2022-08-29T12:26:51.306Z,3.47
2022-08-29T12:32:22.971Z,3.90
2022-08-29T12:37:40.326Z,4.05
2022-08-29T12:43:08.780Z,3.70
2022-08-29T12:48:21.015Z,4.07
2022-08-29T12:53:32.947Z,4.20
2022-08-29T12:58:41.877Z,3.63
2022-08-29T13:03:55.455Z,3.30
2022-08-29T13:08:57.351Z,3.72
2022-08-29T13:14:11.158Z,3.40
2022-08-29T13:19:21.627Z,3.50
2022-08-29T13:24:23.276Z,3.58
2022-08-29T13:29:36.849Z,3.50
2022-08-29T13:34:38.544Z,3.08
2022-08-29T13:39:43.971Z,3.13
2022-08-29T13:44:46.763Z,3.25
2022-08-29T13:49:49.466Z,3.08
2022-08-29T13:54:53.375Z,3.35
2022-08-29T13:59:56.070Z,3.20
2022-08-29T14:04:57.701Z,2.90
2022-08-29T14:09:59.568Z,3.13
2022-08-29T14:15:08.353Z,3.20
2022-08-29T14:20:14.498Z,3.45
2022-08-29T14:25:21.067Z,3.03
2022-08-29T14:30:26.653Z,3.10
2022-08-29T14:35:31.933Z,3.28
2022-08-29T14:40:34.218Z,2.95
2022-08-29T14:45:37.011Z,3.38
2022-08-29T14:50:38.603Z,3.15
2022-08-29T14:55:40.379Z,3.08
2022-08-29T15:00:42.264Z,2.97
2022-08-29T15:05:47.381Z,3.10
2022-08-29T15:15:55.778Z,2.97
2022-08-29T15:20:57.323Z,3.08
2022-08-29T15:25:58.814Z,3.03
2022-08-29T15:31:00.419Z,3.03
2022-08-29T15:36:02.572Z,2.95
2022-08-29T15:41:04.143Z,3.20
2022-08-29T15:46:06.486Z,2.60
2022-08-29T15:51:08.023Z,3.20
2022-08-29T15:56:09.685Z,3.00
2022-08-29T16:01:11.281Z,3.13
2022-08-29T16:06:12.806Z,2.67
2022-08-29T16:11:14.309Z,2.88
2022-08-29T16:16:15.833Z,2.88
2022-08-29T16:21:20.009Z,3.30
2022-08-29T16:26:21.523Z,2.50
2022-08-29T16:31:23.170Z,2.95
2022-08-29T16:36:26.994Z,2.67
2022-08-29T16:41:30.591Z,2.75
2022-08-29T16:46:34.061Z,2.90
2022-08-29T16:51:35.620Z,3.10
2022-08-29T16:56:39.528Z,2.97
2022-08-29T17:01:44.850Z,2.80
2022-08-29T17:06:47.976Z,2.58
2022-08-29T17:11:50.874Z,2.78
2022-08-29T17:16:55.288Z,3.30
2022-08-29T17:21:56.917Z,2.58
2022-08-29T17:26:58.481Z,2.88
2022-08-29T17:32:00.808Z,3.08
2022-08-29T17:37:02.374Z,3.33
2022-08-29T17:42:07.767Z,3.38
2022-08-29T17:47:09.376Z,3.75
2022-08-29T17:52:11.525Z,4.22
2022-08-29T17:57:15.594Z,3.80
2022-08-29T18:02:17.265Z,3.58
2022-08-29T18:07:18.828Z,3.60
2022-08-29T18:12:20.371Z,3.38
2022-08-29T18:17:24.205Z,4.00
2022-08-29T18:22:29.487Z,3.13
2022-08-29T18:27:31.120Z,3.58
2022-08-29T18:32:32.781Z,3.25
2022-08-29T18:37:41.280Z,3.70
2022-08-29T18:42:42.875Z,3.10
2022-08-29T18:47:44.516Z,2.95
2022-08-29T18:52:46.072Z,2.70
2022-08-29T18:57:48.234Z,3.13
2022-08-29T19:02:49.885Z,3.30
2022-08-29T19:07:52.608Z,3.42
2022-08-29T19:12:56.331Z,2.92
2022-08-29T19:18:00.240Z,3.60
2022-08-29T19:23:02.084Z,3.70
2022-08-29T19:28:05.846Z,3.60
2022-08-29T19:33:11.940Z,3.58
2022-08-29T19:38:20.211Z,3.38
2022-08-29T19:43:33.500Z,3.33
2022-08-29T19:48:36.970Z,3.70
2022-08-29T19:53:42.635Z,3.08
2022-08-29T19:58:47.443Z,3.17
2022-08-29T20:03:52.548Z,3.30
2022-08-29T20:08:55.248Z,3.00
2022-08-29T20:13:59.684Z,3.03
2022-08-29T20:19:05.238Z,3.42
2022-08-29T20:24:09.038Z,3.10
2022-08-29T20:29:11.828Z,3.58
2022-08-29T20:34:14.128Z,3.53
2022-08-29T20:39:18.311Z,3.33
2022-08-29T20:44:20.541Z,3.40
2022-08-29T20:49:25.234Z,3.33
2022-08-29T20:54:27.623Z,3.50
2022-08-29T20:59:34.230Z,3.30
2022-08-29T21:04:55.275Z,3.55
2022-08-29T21:09:57.961Z,3.50
2022-08-29T21:15:01.761Z,3.83
2022-08-29T21:20:04.168Z,3.58
2022-08-29T21:25:06.934Z,3.75
2022-08-29T21:30:09.237Z,3.67
2022-08-29T21:35:11.122Z,3.80
2022-08-29T21:40:13.311Z,3.40
2022-08-29T21:45:15.212Z,3.50
2022-08-29T21:50:17.571Z,3.53
2022-08-29T21:55:21.438Z,3.40
2022-08-29T22:00:27.486Z,3.63
2022-08-29T22:05:29.458Z,3.55
2022-08-29T22:10:35.980Z,3.83
2022-08-29T22:15:56.962Z,3.80
2022-08-29T22:21:00.459Z,3.80
2022-08-29T22:26:02.036Z,3.45
2022-08-29T22:31:03.977Z,3.47
2022-08-29T22:36:06.719Z,3.80
2022-08-29T22:41:10.610Z,3.60
2022-08-29T22:46:15.966Z,3.60
2022-08-29T22:51:27.102Z,3.85
2022-08-29T22:56:30.356Z,3.55
2022-08-29T23:01:34.116Z,3.70
2022-08-29T23:06:36.351Z,3.92
2022-08-29T23:11:38.160Z,3.63
2022-08-29T23:16:40.933Z,4.03
2022-08-29T23:21:43.924Z,3.42
2022-08-29T23:26:45.558Z,3.60
2022-08-29T23:31:47.286Z,3.70
2022-08-29T23:36:49.097Z,3.67
2022-08-29T23:41:50.778Z,3.22
2022-08-29T23:46:55.597Z,3.15
2022-08-29T23:51:57.263Z,3.60
2022-08-29T23:57:01.061Z,3.45
